createdAt,value
2022-11-24T00:02:31.549Z,7.91
2022-11-24T00:05:01.728Z,7.88
2022-11-24T00:07:31.903Z,7.85
2022-11-24T00:10:01.989Z,7.84
2022-11-24T00:12:34.976Z,7.83
2022-11-24T00:15:05.224Z,7.83
2022-11-24T00:17:35.314Z,7.82
2022-11-24T00:20:05.877Z,7.74
2022-11-24T00:22:36.041Z,7.69
2022-11-24T00:25:06.664Z,7.70
2022-11-24T00:27:39.294Z,7.68
2022-11-24T00:30:10.692Z,7.67
2022-11-24T00:32:40.878Z,7.65
2022-11-24T00:35:10.991Z,7.66
2022-11-24T00:37:41.028Z,7.66
2022-11-24T00:40:13.902Z,7.66
2022-11-24T00:42:46.603Z,7.65
2022-11-24T00:45:16.796Z,7.65
2022-11-24T00:47:46.776Z,7.64
2022-11-24T00:50:17.033Z,7.59
2022-11-24T00:52:47.000Z,7.58
2022-11-24T00:55:17.062Z,7.55
2022-11-24T00:57:49.761Z,7.55
2022-11-24T01:00:21.026Z,7.53
2022-11-24T01:02:51.204Z,7.51
2022-11-24T01:05:21.502Z,7.49
2022-11-24T01:07:51.652Z,7.45
2022-11-24T01:10:22.571Z,7.40
2022-11-24T01:12:55.256Z,7.40
2022-11-24T01:15:25.476Z,7.36
2022-11-24T01:17:56.217Z,7.43
2022-11-24T01:20:26.823Z,7.38
2022-11-24T01:22:56.874Z,7.39
2022-11-24T01:25:27.024Z,7.35
2022-11-24T01:27:59.653Z,7.38
2022-11-24T01:30:29.796Z,7.36
2022-11-24T01:32:59.851Z,7.36
2022-11-24T01:35:29.913Z,7.26
2022-11-24T01:37:59.974Z,7.35
2022-11-24T01:40:34.449Z,7.33
2022-11-24T01:43:18.880Z,7.35
2022-11-24T01:45:51.134Z,7.32
2022-11-24T01:48:27.890Z,7.33
2022-11-24T01:51:06.625Z,7.33
2022-11-24T01:53:36.917Z,7.33
2022-11-24T01:56:08.440Z,7.31
2022-11-24T01:58:42.928Z,7.29
2022-11-24T02:01:13.823Z,7.23
2022-11-24T02:03:46.546Z,7.28
2022-11-24T02:06:19.632Z,7.26
2022-11-24T02:08:54.897Z,7.25
2022-11-24T02:11:27.065Z,7.25
2022-11-24T02:14:00.566Z,7.24
2022-11-24T02:16:30.798Z,7.21
2022-11-24T02:19:01.026Z,7.24
2022-11-24T02:21:31.399Z,7.20
2022-11-24T02:24:08.543Z,7.21
2022-11-24T02:26:45.823Z,7.18
2022-11-24T02:29:17.130Z,7.15
2022-11-24T02:31:50.473Z,7.15
2022-11-24T02:34:20.636Z,7.14
2022-11-24T02:36:50.697Z,7.15
2022-11-24T02:39:21.399Z,7.15
2022-11-24T02:41:58.838Z,7.15
2022-11-24T02:44:33.572Z,7.15
2022-11-24T02:47:08.279Z,7.13
2022-11-24T02:49:39.152Z,7.12
2022-11-24T02:52:09.523Z,7.11
2022-11-24T02:54:39.628Z,7.05
2022-11-24T02:57:12.983Z,7.06
2022-11-24T02:59:43.340Z,7.04
2022-11-24T03:02:13.330Z,7.04
2022-11-24T03:04:44.751Z,7.03
2022-11-24T03:07:14.949Z,7.03
2022-11-24T03:09:45.810Z,7.02
2022-11-24T03:12:18.551Z,7.01
2022-11-24T03:14:48.636Z,7.02
2022-11-24T03:17:18.658Z,7.02
2022-11-24T03:19:48.712Z,6.99
2022-11-24T03:22:18.733Z,6.99
2022-11-24T03:24:48.909Z,7.01
2022-11-24T03:27:21.812Z,7.01
2022-11-24T03:29:51.822Z,6.97
2022-11-24T03:32:21.954Z,6.97
2022-11-24T03:34:52.070Z,7.00
2022-11-24T03:37:22.700Z,7.01
2022-11-24T03:39:52.840Z,7.02
2022-11-24T03:42:25.671Z,7.04
2022-11-24T03:44:55.829Z,7.07
2022-11-24T03:47:25.801Z,7.10
2022-11-24T03:49:55.897Z,7.13
2022-11-24T03:52:26.784Z,7.15
2022-11-24T03:54:56.986Z,7.13
2022-11-24T03:57:29.637Z,7.14
2022-11-24T03:59:59.708Z,7.13
2022-11-24T04:02:29.800Z,7.13
2022-11-24T04:04:59.864Z,7.13
2022-11-24T04:07:30.026Z,7.15
2022-11-24T04:10:00.072Z,7.15
2022-11-24T04:12:45.011Z,7.16
2022-11-24T04:15:18.395Z,7.14
2022-11-24T04:17:49.465Z,7.14
2022-11-24T04:20:20.571Z,7.14
2022-11-24T04:22:52.251Z,7.15
2022-11-24T04:25:22.551Z,7.17
2022-11-24T04:27:57.759Z,7.16
2022-11-24T04:30:29.413Z,7.17
2022-11-24T04:32:59.943Z,7.19
2022-11-24T04:35:29.993Z,7.21
2022-11-24T04:38:00.096Z,7.23
2022-11-24T04:40:30.254Z,7.26
2022-11-24T04:43:02.932Z,7.29
2022-11-24T04:45:32.961Z,7.27
2022-11-24T04:48:02.936Z,7.22
2022-11-24T04:50:33.123Z,7.18
2022-11-24T04:53:03.216Z,7.18
2022-11-24T04:55:33.307Z,7.14
2022-11-24T04:58:06.365Z,7.15
2022-11-24T05:00:36.417Z,7.18
2022-11-24T05:03:06.704Z,7.18
2022-11-24T05:05:36.814Z,7.18
2022-11-24T05:08:07.840Z,7.20
2022-11-24T05:10:38.012Z,7.20
2022-11-24T05:13:14.221Z,7.22
2022-11-24T05:15:45.041Z,7.22
2022-11-24T05:18:16.826Z,7.21
2022-11-24T05:20:47.583Z,7.21
2022-11-24T05:23:18.246Z,7.19
2022-11-24T05:25:48.356Z,7.19
2022-11-24T05:28:21.910Z,7.21
2022-11-24T05:30:52.029Z,7.20
2022-11-24T05:33:23.210Z,7.23
2022-11-24T05:35:53.792Z,7.20
2022-11-24T05:38:24.201Z,7.25
2022-11-24T05:40:54.441Z,7.26
2022-11-24T05:43:27.131Z,7.23
2022-11-24T05:45:57.170Z,7.22
2022-11-24T05:48:27.415Z,7.21
2022-11-24T05:50:58.589Z,7.18
2022-11-24T05:53:28.847Z,7.14
2022-11-24T05:55:58.897Z,7.13
2022-11-24T05:58:31.565Z,7.18
2022-11-24T06:01:04.387Z,7.18
2022-11-24T06:03:34.453Z,7.16
2022-11-24T06:06:04.631Z,7.12
2022-11-24T06:08:36.600Z,7.12
2022-11-24T06:11:17.423Z,7.15
2022-11-24T06:13:53.068Z,7.12
2022-11-24T06:16:23.487Z,7.09
2022-11-24T06:18:53.556Z,7.12
2022-11-24T06:21:23.739Z,7.11
2022-11-24T06:23:53.770Z,7.11
2022-11-24T06:26:23.876Z,7.11
2022-11-24T06:28:56.666Z,7.12
2022-11-24T06:31:27.152Z,7.15
2022-11-24T06:33:57.442Z,7.18
2022-11-24T06:36:28.124Z,7.18
2022-11-24T06:39:00.709Z,7.18
2022-11-24T06:41:31.170Z,7.14
2022-11-24T06:44:05.843Z,7.13
2022-11-24T06:46:35.912Z,7.16
2022-11-24T06:49:06.021Z,7.15
2022-11-24T06:51:36.179Z,7.19
2022-11-24T06:54:09.576Z,7.15
2022-11-24T06:56:39.727Z,7.11
2022-11-24T06:59:20.344Z,7.10
2022-11-24T07:01:50.682Z,7.11
2022-11-24T07:04:20.825Z,7.06
2022-11-24T07:06:50.854Z,7.08
2022-11-24T07:09:20.934Z,7.08
2022-11-24T07:11:51.003Z,7.09
2022-11-24T07:14:23.619Z,7.10
2022-11-24T07:16:53.772Z,7.12
2022-11-24T07:19:27.373Z,7.09
2022-11-24T07:21:59.088Z,7.06
2022-11-24T07:24:29.141Z,6.99
2022-11-24T07:26:59.205Z,6.99
2022-11-24T07:29:31.953Z,7.00
2022-11-24T13:59:35.368Z,6.39
2022-11-24T14:02:22.475Z,6.64
2022-11-24T14:04:53.253Z,6.75
2022-11-24T14:07:23.770Z,6.80
2022-11-24T14:09:55.270Z,6.85
2022-11-24T14:12:26.889Z,6.87
2022-11-24T14:15:23.404Z,6.89
2022-11-24T14:17:53.919Z,6.92
2022-11-24T14:20:27.253Z,7.00
2022-11-24T14:22:57.687Z,7.01
2022-11-24T14:25:35.635Z,7.03
2022-11-24T14:28:05.739Z,6.90
2022-11-24T14:30:38.469Z,6.92
2022-11-24T14:33:16.063Z,6.94
2022-11-24T14:35:47.629Z,6.91
2022-11-24T14:38:18.007Z,6.96
2022-11-24T14:40:49.870Z,6.95
2022-11-24T14:43:26.393Z,6.95
2022-11-24T14:46:02.091Z,6.97
2022-11-24T14:48:34.521Z,6.96
2022-11-24T14:51:11.559Z,6.96
2022-11-24T14:53:44.870Z,6.87
2022-11-24T14:56:26.613Z,6.96
2022-11-24T14:58:57.945Z,6.95
2022-11-24T15:01:37.797Z,6.96
2022-11-24T15:04:46.289Z,6.97
2022-11-24T15:07:19.483Z,7.01
2022-11-24T15:09:58.177Z,7.00
2022-11-24T15:12:31.657Z,7.02
2022-11-24T15:15:04.901Z,7.05
2022-11-24T15:17:37.956Z,7.07
2022-11-24T15:20:13.492Z,7.11
2022-11-24T15:22:46.592Z,7.13
2022-11-24T15:25:37.688Z,7.16
2022-11-24T15:28:08.052Z,7.12
2022-11-24T15:30:39.732Z,7.11
2022-11-24T15:33:19.600Z,7.13
2022-11-24T15:35:50.238Z,7.07
2022-11-24T15:38:21.215Z,7.09
2022-11-24T15:40:54.988Z,7.06
2022-11-24T15:43:32.119Z,7.04
2022-11-24T15:46:03.739Z,7.04
2022-11-24T15:48:36.493Z,7.04
2022-11-24T15:51:12.666Z,7.07
2022-11-24T15:53:49.507Z,7.07
2022-11-24T15:56:25.875Z,7.02
2022-11-24T15:58:56.070Z,7.06
2022-11-24T16:01:30.113Z,7.10
2022-11-24T16:04:02.631Z,7.08
2022-11-24T16:06:35.881Z,7.06
2022-11-24T16:09:06.109Z,7.07
2022-11-24T16:11:36.187Z,7.03
2022-11-24T16:14:06.281Z,7.04
2022-11-24T16:16:36.557Z,7.02
2022-11-24T16:19:09.340Z,7.01
2022-11-24T16:21:39.472Z,7.01
2022-11-24T16:24:10.391Z,7.00
2022-11-24T16:26:40.555Z,6.87
2022-11-24T16:29:10.633Z,6.89
2022-11-24T16:31:43.553Z,6.88
2022-11-24T16:34:16.296Z,6.88
2022-11-24T16:36:46.469Z,6.88
2022-11-24T16:39:16.678Z,6.90
2022-11-24T16:41:46.801Z,6.90
2022-11-24T16:44:20.035Z,6.91
2022-11-24T16:46:50.156Z,6.89
2022-11-24T16:49:23.103Z,6.84
2022-11-24T16:51:53.256Z,6.80
2022-11-24T16:54:23.393Z,6.81
2022-11-24T16:56:53.639Z,6.81
2022-11-24T16:59:23.856Z,6.82
2022-11-24T17:01:54.403Z,6.81
2022-11-24T17:04:27.267Z,6.83
2022-11-24T17:06:58.532Z,6.87
2022-11-24T17:09:28.804Z,6.85
2022-11-24T17:11:58.744Z,6.78
2022-11-24T17:14:28.816Z,6.71
2022-11-24T17:16:58.913Z,6.64
2022-11-24T17:19:31.958Z,6.51
2022-11-24T17:22:01.999Z,6.56
2022-11-24T17:24:32.330Z,6.52
2022-11-24T17:27:02.608Z,6.46
2022-11-24T17:29:33.088Z,6.44
2022-11-24T17:32:03.297Z,6.36
2022-11-24T17:34:36.253Z,6.36
2022-11-24T17:37:06.651Z,6.31
2022-11-24T17:39:36.965Z,6.28
2022-11-24T17:42:07.595Z,6.28
2022-11-24T17:44:37.825Z,6.26
2022-11-24T17:47:10.885Z,6.24
2022-11-24T17:49:46.559Z,6.22
2022-11-24T17:52:18.053Z,6.20
2022-11-24T17:54:48.219Z,6.20
2022-11-24T17:57:18.271Z,6.19
2022-11-24T17:59:48.566Z,6.20
2022-11-24T18:02:18.712Z,6.23
2022-11-24T18:04:51.557Z,6.26
2022-11-24T18:07:21.875Z,6.25
2022-11-24T18:09:52.156Z,6.20
2022-11-24T18:12:22.259Z,6.16
2022-11-24T18:14:52.388Z,6.12
2022-11-24T18:17:22.901Z,6.09
2022-11-24T18:19:55.855Z,6.08
2022-11-24T18:22:49.907Z,6.05
2022-11-24T18:25:16.219Z,6.05
2022-11-24T18:27:46.378Z,6.03
2022-11-24T18:30:17.223Z,6.05
2022-11-24T18:32:47.333Z,6.06
2022-11-24T18:35:20.115Z,6.03
2022-11-24T18:37:50.254Z,6.07
2022-11-24T18:40:20.621Z,6.07
2022-11-24T18:42:52.760Z,6.07
2022-11-24T18:45:22.854Z,6.10
2022-11-24T18:47:53.237Z,6.06
2022-11-24T18:50:26.170Z,6.11
2022-11-24T18:52:59.356Z,6.11
2022-11-24T18:55:29.510Z,6.10
2022-11-24T18:58:00.199Z,6.09
2022-11-24T19:00:30.313Z,6.09
2022-11-24T19:03:00.458Z,6.07
2022-11-24T19:05:33.189Z,6.10
2022-11-24T19:08:03.400Z,6.10
2022-11-24T19:10:33.574Z,6.11
2022-11-24T19:13:03.741Z,6.08
2022-11-24T19:15:35.374Z,6.07
2022-11-24T19:18:05.544Z,6.04
2022-11-24T19:20:41.821Z,6.04
2022-11-24T19:23:12.341Z,6.01
2022-11-24T19:25:42.423Z,6.03
2022-11-24T19:28:12.850Z,6.01
2022-11-24T19:30:45.436Z,6.02
2022-11-24T19:33:15.595Z,6.01
2022-11-24T19:35:48.238Z,6.02
2022-11-24T19:38:18.426Z,6.01
2022-11-24T19:40:48.431Z,5.98
2022-11-24T19:43:18.502Z,5.98
2022-11-24T19:45:48.645Z,5.99
2022-11-24T19:48:18.721Z,6.00
2022-11-24T19:50:51.654Z,6.01
2022-11-24T19:53:21.957Z,6.02
2022-11-24T19:55:51.977Z,6.05
2022-11-24T19:58:22.101Z,6.06
2022-11-24T20:00:53.651Z,6.08
2022-11-24T20:03:23.867Z,6.09
2022-11-24T20:06:00.395Z,6.12
2022-11-24T20:08:31.727Z,6.13
2022-11-24T20:11:06.746Z,6.13
2022-11-24T20:13:38.348Z,6.16
2022-11-24T20:16:11.401Z,6.12
2022-11-24T20:18:44.002Z,6.14
2022-11-24T20:21:19.427Z,6.12
2022-11-24T20:23:54.656Z,6.11
2022-11-24T20:26:26.536Z,6.08
2022-11-24T20:28:58.359Z,6.07
2022-11-24T20:31:30.527Z,6.05
2022-11-24T20:34:03.222Z,6.01
2022-11-24T20:36:37.628Z,6.01
2022-11-24T20:39:10.816Z,6.00
2022-11-24T20:41:41.865Z,5.99
2022-11-24T20:44:16.297Z,6.00
2022-11-24T20:46:48.280Z,5.94
2022-11-24T20:49:22.674Z,6.02
2022-11-24T20:51:57.507Z,6.00
2022-11-24T20:54:28.296Z,6.02
2022-11-24T20:56:58.525Z,6.01
2022-11-24T20:59:28.661Z,6.01
2022-11-24T21:01:59.314Z,6.04
2022-11-24T21:04:30.331Z,6.03
2022-11-24T21:07:03.826Z,6.03
2022-11-24T21:09:33.919Z,6.05
2022-11-24T21:12:09.598Z,6.05
2022-11-24T21:14:40.131Z,6.05
2022-11-24T21:17:14.328Z,6.02
2022-11-24T21:19:44.559Z,6.02
2022-11-24T21:22:17.399Z,6.01
2022-11-24T21:24:47.557Z,6.00
2022-11-24T21:27:17.687Z,6.01
2022-11-24T21:29:47.975Z,5.99
2022-11-24T21:32:18.027Z,5.98
2022-11-24T21:34:49.107Z,5.96
2022-11-24T21:37:23.582Z,5.94
2022-11-24T21:39:53.627Z,5.97
2022-11-24T21:42:23.723Z,5.94
2022-11-24T21:44:54.048Z,5.97
2022-11-24T21:47:24.217Z,5.96
2022-11-24T21:49:54.777Z,5.96
2022-11-24T21:52:27.455Z,5.92
2022-11-24T21:54:57.633Z,5.95
2022-11-24T21:57:27.674Z,5.95
2022-11-24T21:59:57.838Z,5.95
2022-11-24T22:02:27.939Z,5.96
2022-11-24T22:04:58.031Z,5.98
2022-11-24T22:07:33.719Z,5.91
2022-11-24T22:10:03.891Z,5.93
2022-11-24T22:12:35.047Z,5.91
2022-11-24T22:15:05.184Z,5.97
2022-11-24T22:17:35.405Z,5.96
2022-11-24T22:20:05.543Z,5.96
2022-11-24T22:22:39.696Z,5.90
2022-11-24T22:25:10.835Z,5.93
2022-11-24T22:27:41.055Z,5.94
2022-11-24T22:30:13.342Z,5.98
2022-11-24T22:32:43.375Z,5.97
2022-11-24T22:35:13.452Z,5.99
2022-11-24T22:37:46.194Z,6.03
2022-11-24T22:40:16.696Z,6.03
2022-11-24T22:42:46.821Z,6.03
2022-11-24T22:45:17.021Z,6.05
2022-11-24T22:47:47.088Z,6.03
2022-11-24T22:50:17.579Z,6.07
2022-11-24T22:52:50.248Z,6.09
2022-11-24T22:55:20.297Z,6.10
2022-11-24T22:57:52.295Z,6.11
2022-11-24T23:00:24.755Z,6.08
2022-11-24T23:02:54.969Z,6.08
2022-11-24T23:05:25.154Z,6.10
2022-11-24T23:07:57.987Z,6.08
2022-11-24T23:10:28.468Z,6.08
2022-11-24T23:12:58.814Z,6.09
2022-11-24T23:15:29.113Z,6.10
2022-11-24T23:17:59.377Z,6.09
2022-11-24T23:20:29.639Z,6.13
2022-11-24T23:23:02.474Z,6.14
2022-11-24T23:25:32.701Z,6.13
2022-11-24T23:28:05.810Z,6.12
2022-11-24T23:30:36.180Z,6.12
2022-11-24T23:33:06.500Z,6.11
2022-11-24T23:35:36.660Z,6.10
2022-11-24T23:38:10.156Z,6.11
2022-11-24T23:40:40.454Z,6.06
2022-11-24T23:43:13.809Z,6.03
2022-11-24T23:45:44.225Z,6.05
2022-11-24T23:48:14.664Z,6.05
2022-11-24T23:50:45.001Z,6.07
2022-11-24T23:53:17.852Z,6.07
2022-11-24T23:55:55.783Z,6.07
2022-11-24T23:58:26.151Z,6.06
